LIRN/NAP METAR and TAF weather

Enter ICAO airport designator
Station Type Date Time Source
LIRN METAR 2019/09/21 04:50 UTC NOAA

LIRN 210450Z 02005KT CAVOK 16/08 Q1021 NOSIG


Station Type Date Time Source
LIRN Decoded METAR 2019/09/21 04:50 UTC NOAA

Napoli / Capodichino, Italy (LIRN) 40-51N 014-18E 72M
Sep 21, 2019 - 12:50 AM EDT / 2019.09.21 0450 UTC
Wind: from the NNE (020 degrees) at 6 MPH (5 KT):0
Visibility: greater than 7 mile(s):0
Temperature: 60 F (16 C)
Dew Point: 46 F (8 C)
Relative Humidity: 58%
Pressure (altimeter): 30.15 in. Hg (1021 hPa)
ob: LIRN 210450Z 02005KT CAVOK 16/08 Q1021 NOSIG
cycle: 5

Station Type Date Time Source
LIRN TAF 2019/09/20 18:25 UTC NOAA

TAF LIRN 201700Z 2018/2118 07010KT 9999 SCT030
BECMG 2109/2111 22010KT

Example: see airport list